sensor_id;sensor_type;location;lat;lon;timestamp;P1;durP1;ratioP1;P2;durP2;ratioP2
42200;SDS011;27869;51.442;7.540;2023-05-07T00:01:40;10.45;;;3.30;;
42200;SDS011;27869;51.442;7.540;2023-05-07T00:04:09;10.32;;;3.38;;
42200;SDS011;27869;51.442;7.540;2023-05-07T00:06:36;9.68;;;3.00;;
42200;SDS011;27869;51.442;7.540;2023-05-07T00:09:03;9.77;;;3.03;;
42200;SDS011;27869;51.442;7.540;2023-05-07T00:11:30;9.30;;;3.53;;
42200;SDS011;27869;51.442;7.540;2023-05-07T00:13:57;10.50;;;3.10;;
42200;SDS011;27869;51.442;7.540;2023-05-07T00:16:24;9.32;;;3.10;;
42200;SDS011;27869;51.442;7.540;2023-05-07T00:18:51;9.40;;;3.20;;
42200;SDS011;27869;51.442;7.540;2023-05-07T00:21:20;9.95;;;3.25;;
42200;SDS011;27869;51.442;7.540;2023-05-07T00:23:47;9.63;;;3.08;;
42200;SDS011;27869;51.442;7.540;2023-05-07T00:26:14;11.20;;;3.38;;
42200;SDS011;27869;51.442;7.540;2023-05-07T00:28:40;11.52;;;3.03;;
42200;SDS011;27869;51.442;7.540;2023-05-07T00:31:07;11.43;;;3.40;;
42200;SDS011;27869;51.442;7.540;2023-05-07T00:33:35;9.35;;;2.88;;
42200;SDS011;27869;51.442;7.540;2023-05-07T00:36:02;9.65;;;3.40;;
42200;SDS011;27869;51.442;7.540;2023-05-07T00:38:30;9.32;;;3.65;;
42200;SDS011;27869;51.442;7.540;2023-05-07T00:40:57;12.13;;;3.40;;
42200;SDS011;27869;51.442;7.540;2023-05-07T00:43:24;11.75;;;3.15;;
42200;SDS011;27869;51.442;7.540;2023-05-07T00:45:52;11.45;;;3.80;;
42200;SDS011;27869;51.442;7.540;2023-05-07T00:48:19;8.70;;;3.42;;
42200;SDS011;27869;51.442;7.540;2023-05-07T00:50:46;12.70;;;3.30;;
42200;SDS011;27869;51.442;7.540;2023-05-07T00:53:13;10.57;;;3.83;;
42200;SDS011;27869;51.442;7.540;2023-05-07T00:55:42;11.68;;;3.40;;
42200;SDS011;27869;51.442;7.540;2023-05-07T00:58:09;10.25;;;3.00;;
42200;SDS011;27869;51.442;7.540;2023-05-07T01:00:36;10.70;;;3.42;;
42200;SDS011;27869;51.442;7.540;2023-05-07T01:03:03;12.45;;;3.90;;
42200;SDS011;27869;51.442;7.540;2023-05-07T01:05:31;9.60;;;3.33;;
42200;SDS011;27869;51.442;7.540;2023-05-07T01:07:58;10.05;;;3.85;;
42200;SDS011;27869;51.442;7.540;2023-05-07T01:10:25;12.23;;;3.53;;
42200;SDS011;27869;51.442;7.540;2023-05-07T01:12:54;10.07;;;3.63;;
42200;SDS011;27869;51.442;7.540;2023-05-07T01:15:21;12.23;;;3.70;;
42200;SDS011;27869;51.442;7.540;2023-05-07T01:17:48;10.13;;;3.40;;
42200;SDS011;27869;51.442;7.540;2023-05-07T01:20:15;10.88;;;3.45;;
42200;SDS011;27869;51.442;7.540;2023-05-07T01:22:43;10.52;;;3.42;;
42200;SDS011;27869;51.442;7.540;2023-05-07T01:25:10;10.68;;;3.50;;
42200;SDS011;27869;51.442;7.540;2023-05-07T01:27:38;11.85;;;4.07;;
42200;SDS011;27869;51.442;7.540;2023-05-07T01:30:06;12.77;;;3.47;;
42200;SDS011;27869;51.442;7.540;2023-05-07T01:32:35;10.27;;;3.65;;
42200;SDS011;27869;51.442;7.540;2023-05-07T01:35:07;11.00;;;3.67;;
42200;SDS011;27869;51.442;7.540;2023-05-07T01:37:37;8.98;;;3.03;;
42200;SDS011;27869;51.442;7.540;2023-05-07T01:40:07;9.00;;;2.95;;
42200;SDS011;27869;51.442;7.540;2023-05-07T01:42:34;9.75;;;3.63;;
42200;SDS011;27869;51.442;7.540;2023-05-07T01:45:02;10.45;;;3.60;;
42200;SDS011;27869;51.442;7.540;2023-05-07T01:47:29;11.27;;;3.53;;
42200;SDS011;27869;51.442;7.540;2023-05-07T01:49:56;13.05;;;3.80;;
42200;SDS011;27869;51.442;7.540;2023-05-07T01:52:24;10.80;;;3.58;;
42200;SDS011;27869;51.442;7.540;2023-05-07T01:54:51;10.48;;;3.08;;
42200;SDS011;27869;51.442;7.540;2023-05-07T01:57:19;12.10;;;3.47;;
42200;SDS011;27869;51.442;7.540;2023-05-07T01:59:46;11.40;;;3.30;;
42200;SDS011;27869;51.442;7.540;2023-05-07T02:02:13;10.65;;;3.70;;
42200;SDS011;27869;51.442;7.540;2023-05-07T02:04:40;11.15;;;3.67;;
42200;SDS011;27869;51.442;7.540;2023-05-07T02:07:07;10.50;;;3.70;;
42200;SDS011;27869;51.442;7.540;2023-05-07T02:09:34;10.02;;;3.03;;
42200;SDS011;27869;51.442;7.540;2023-05-07T02:12:00;11.27;;;3.60;;
42200;SDS011;27869;51.442;7.540;2023-05-07T02:14:29;10.43;;;3.55;;
42200;SDS011;27869;51.442;7.540;2023-05-07T02:16:56;10.25;;;3.65;;
42200;SDS011;27869;51.442;7.540;2023-05-07T02:19:22;11.35;;;3.42;;
42200;SDS011;27869;51.442;7.540;2023-05-07T02:21:49;14.25;;;3.75;;
42200;SDS011;27869;51.442;7.540;2023-05-07T02:24:17;13.77;;;3.40;;
42200;SDS011;27869;51.442;7.540;2023-05-07T02:26:43;11.38;;;3.60;;
42200;SDS011;27869;51.442;7.540;2023-05-07T02:29:10;12.35;;;3.92;;
42200;SDS011;27869;51.442;7.540;2023-05-07T02:31:41;9.70;;;3.35;;
42200;SDS011;27869;51.442;7.540;2023-05-07T02:34:08;9.20;;;3.25;;
42200;SDS011;27869;51.442;7.540;2023-05-07T02:36:35;9.43;;;3.22;;
42200;SDS011;27869;51.442;7.540;2023-05-07T02:39:02;10.95;;;3.42;;
42200;SDS011;27869;51.442;7.540;2023-05-07T02:41:29;10.80;;;3.15;;
42200;SDS011;27869;51.442;7.540;2023-05-07T02:43:57;9.35;;;3.30;;
42200;SDS011;27869;51.442;7.540;2023-05-07T02:46:23;12.55;;;4.22;;
42200;SDS011;27869;51.442;7.540;2023-05-07T02:48:52;12.95;;;4.20;;
42200;SDS011;27869;51.442;7.540;2023-05-07T02:51:19;11.95;;;3.50;;
42200;SDS011;27869;51.442;7.540;2023-05-07T02:53:47;11.02;;;3.60;;
42200;SDS011;27869;51.442;7.540;2023-05-07T02:56:14;12.07;;;4.53;;
42200;SDS011;27869;51.442;7.540;2023-05-07T02:58:41;13.13;;;3.85;;
42200;SDS011;27869;51.442;7.540;2023-05-07T03:01:08;9.93;;;3.88;;
42200;SDS011;27869;51.442;7.540;2023-05-07T03:03:35;15.90;;;4.78;;
42200;SDS011;27869;51.442;7.540;2023-05-07T03:06:04;11.30;;;3.65;;
42200;SDS011;27869;51.442;7.540;2023-05-07T03:08:31;9.98;;;3.22;;
42200;SDS011;27869;51.442;7.540;2023-05-07T03:10:58;12.38;;;3.17;;
42200;SDS011;27869;51.442;7.540;2023-05-07T03:13:25;12.20;;;3.58;;
42200;SDS011;27869;51.442;7.540;2023-05-07T03:15:52;13.77;;;3.72;;
42200;SDS011;27869;51.442;7.540;2023-05-07T03:18:19;13.27;;;3.10;;
42200;SDS011;27869;51.442;7.540;2023-05-07T03:20:47;10.13;;;3.22;;
42200;SDS011;27869;51.442;7.540;2023-05-07T03:23:16;10.32;;;2.70;;
42200;SDS011;27869;51.442;7.540;2023-05-07T03:25:43;8.98;;;3.10;;
42200;SDS011;27869;51.442;7.540;2023-05-07T03:28:10;11.65;;;3.17;;
42200;SDS011;27869;51.442;7.540;2023-05-07T03:30:36;11.23;;;3.20;;
42200;SDS011;27869;51.442;7.540;2023-05-07T03:33:03;12.20;;;3.65;;
42200;SDS011;27869;51.442;7.540;2023-05-07T03:35:30;11.85;;;3.80;;
42200;SDS011;27869;51.442;7.540;2023-05-07T03:37:57;17.85;;;3.53;;
42200;SDS011;27869;51.442;7.540;2023-05-07T03:40:25;12.23;;;3.70;;
42200;SDS011;27869;51.442;7.540;2023-05-07T03:42:52;11.23;;;3.47;;
42200;SDS011;27869;51.442;7.540;2023-05-07T03:45:19;10.10;;;3.40;;
42200;SDS011;27869;51.442;7.540;2023-05-07T03:47:46;12.48;;;3.40;;
42200;SDS011;27869;51.442;7.540;2023-05-07T03:50:13;10.23;;;3.50;;
42200;SDS011;27869;51.442;7.540;2023-05-07T03:52:40;9.50;;;3.47;;
42200;SDS011;27869;51.442;7.540;2023-05-07T03:55:07;9.57;;;3.10;;
42200;SDS011;27869;51.442;7.540;2023-05-07T03:57:36;10.13;;;3.35;;
42200;SDS011;27869;51.442;7.540;2023-05-07T04:00:03;12.90;;;3.63;;
42200;SDS011;27869;51.442;7.540;2023-05-07T04:02:32;16.42;;;3.45;;
42200;SDS011;27869;51.442;7.540;2023-05-07T04:04:59;12.77;;;3.30;;
42200;SDS011;27869;51.442;7.540;2023-05-07T04:07:26;10.63;;;3.78;;
42200;SDS011;27869;51.442;7.540;2023-05-07T04:09:53;11.63;;;3.65;;
42200;SDS011;27869;51.442;7.540;2023-05-07T04:12:19;10.20;;;3.20;;
42200;SDS011;27869;51.442;7.540;2023-05-07T04:14:48;10.02;;;3.50;;
42200;SDS011;27869;51.442;7.540;2023-05-07T04:17:15;10.07;;;3.92;;
42200;SDS011;27869;51.442;7.540;2023-05-07T04:19:42;11.02;;;3.38;;
42200;SDS011;27869;51.442;7.540;2023-05-07T04:22:10;10.55;;;3.30;;
42200;SDS011;27869;51.442;7.540;2023-05-07T04:24:37;10.43;;;3.88;;
42200;SDS011;27869;51.442;7.540;2023-05-07T04:27:04;12.23;;;3.50;;
42200;SDS011;27869;51.442;7.540;2023-05-07T04:29:31;13.65;;;3.80;;
42200;SDS011;27869;51.442;7.540;2023-05-07T04:31:59;11.13;;;3.88;;
42200;SDS011;27869;51.442;7.540;2023-05-07T04:34:26;10.77;;;3.05;;
42200;SDS011;27869;51.442;7.540;2023-05-07T04:36:53;10.60;;;3.53;;
42200;SDS011;27869;51.442;7.540;2023-05-07T04:39:20;11.60;;;3.80;;
42200;SDS011;27869;51.442;7.540;2023-05-07T04:41:47;10.23;;;3.78;;
42200;SDS011;27869;51.442;7.540;2023-05-07T04:44:14;10.32;;;3.63;;
42200;SDS011;27869;51.442;7.540;2023-05-07T04:46:41;11.45;;;3.67;;
42200;SDS011;27869;51.442;7.540;2023-05-07T04:49:10;11.02;;;3.63;;
42200;SDS011;27869;51.442;7.540;2023-05-07T04:51:36;9.20;;;3.35;;
42200;SDS011;27869;51.442;7.540;2023-05-07T04:54:03;10.10;;;3.97;;
42200;SDS011;27869;51.442;7.540;2023-05-07T04:56:30;10.95;;;3.75;;
42200;SDS011;27869;51.442;7.540;2023-05-07T04:58:57;13.77;;;3.67;;
42200;SDS011;27869;51.442;7.540;2023-05-07T05:01:24;8.38;;;3.00;;
42200;SDS011;27869;51.442;7.540;2023-05-07T05:03:51;11.13;;;3.40;;
42200;SDS011;27869;51.442;7.540;2023-05-07T05:06:19;10.73;;;3.30;;
42200;SDS011;27869;51.442;7.540;2023-05-07T05:08:46;10.57;;;3.60;;
42200;SDS011;27869;51.442;7.540;2023-05-07T05:11:13;8.77;;;2.75;;
42200;SDS011;27869;51.442;7.540;2023-05-07T05:13:39;13.38;;;2.90;;
42200;SDS011;27869;51.442;7.540;2023-05-07T05:16:06;8.43;;;2.90;;
42200;SDS011;27869;51.442;7.540;2023-05-07T05:18:34;8.55;;;2.60;;
42200;SDS011;27869;51.442;7.540;2023-05-07T05:21:01;8.02;;;2.58;;
42200;SDS011;27869;51.442;7.540;2023-05-07T05:23:29;11.60;;;3.63;;
42200;SDS011;27869;51.442;7.540;2023-05-07T05:25:56;10.88;;;2.70;;
42200;SDS011;27869;51.442;7.540;2023-05-07T05:28:23;7.97;;;2.47;;
42200;SDS011;27869;51.442;7.540;2023-05-07T05:30:50;6.60;;;2.10;;
42200;SDS011;27869;51.442;7.540;2023-05-07T05:33:17;8.93;;;2.30;;
42200;SDS011;27869;51.442;7.540;2023-05-07T05:35:44;6.82;;;2.20;;
42200;SDS011;27869;51.442;7.540;2023-05-07T05:38:11;9.05;;;2.38;;
42200;SDS011;27869;51.442;7.540;2023-05-07T05:40:39;8.00;;;2.50;;
42200;SDS011;27869;51.442;7.540;2023-05-07T05:43:06;8.70;;;2.50;;
42200;SDS011;27869;51.442;7.540;2023-05-07T05:45:33;5.85;;;1.95;;
42200;SDS011;27869;51.442;7.540;2023-05-07T05:48:00;8.63;;;2.30;;
42200;SDS011;27869;51.442;7.540;2023-05-07T05:50:27;7.13;;;2.20;;
42200;SDS011;27869;51.442;7.540;2023-05-07T05:52:54;7.07;;;2.10;;
42200;SDS011;27869;51.442;7.540;2023-05-07T05:55:21;6.85;;;2.03;;
42200;SDS011;27869;51.442;7.540;2023-05-07T05:57:49;6.82;;;2.13;;
42200;SDS011;27869;51.442;7.540;2023-05-07T06:00:16;9.65;;;2.28;;
42200;SDS011;27869;51.442;7.540;2023-05-07T06:02:43;7.65;;;1.95;;
42200;SDS011;27869;51.442;7.540;2023-05-07T06:05:10;8.23;;;1.98;;
42200;SDS011;27869;51.442;7.540;2023-05-07T06:07:37;7.53;;;2.00;;
42200;SDS011;27869;51.442;7.540;2023-05-07T06:10:04;5.47;;;1.83;;
42200;SDS011;27869;51.442;7.540;2023-05-07T06:12:32;6.25;;;1.90;;
42200;SDS011;27869;51.442;7.540;2023-05-07T06:15:01;6.78;;;1.95;;
42200;SDS011;27869;51.442;7.540;2023-05-07T06:17:27;7.00;;;2.10;;
42200;SDS011;27869;51.442;7.540;2023-05-07T06:19:55;6.78;;;2.40;;
42200;SDS011;27869;51.442;7.540;2023-05-07T06:22:22;8.48;;;2.17;;
42200;SDS011;27869;51.442;7.540;2023-05-07T06:24:49;7.10;;;2.22;;
42200;SDS011;27869;51.442;7.540;2023-05-07T06:27:16;8.15;;;2.42;;
42200;SDS011;27869;51.442;7.540;2023-05-07T06:29:43;8.40;;;1.80;;
42200;SDS011;27869;51.442;7.540;2023-05-07T06:32:11;7.75;;;2.10;;
42200;SDS011;27869;51.442;7.540;2023-05-07T06:34:39;7.45;;;2.13;;
42200;SDS011;27869;51.442;7.540;2023-05-07T06:37:07;6.72;;;2.10;;
42200;SDS011;27869;51.442;7.540;2023-05-07T06:39:34;5.30;;;1.67;;
42200;SDS011;27869;51.442;7.540;2023-05-07T06:42:01;8.73;;;2.15;;
42200;SDS011;27869;51.442;7.540;2023-05-07T06:44:29;5.80;;;1.67;;
42200;SDS011;27869;51.442;7.540;2023-05-07T06:46:56;7.10;;;1.90;;
42200;SDS011;27869;51.442;7.540;2023-05-07T06:49:24;6.85;;;1.88;;
42200;SDS011;27869;51.442;7.540;2023-05-07T06:51:51;7.13;;;1.83;;
42200;SDS011;27869;51.442;7.540;2023-05-07T06:54:18;6.20;;;1.70;;
42200;SDS011;27869;51.442;7.540;2023-05-07T06:56:45;7.63;;;1.70;;
42200;SDS011;27869;51.442;7.540;2023-05-07T06:59:12;6.47;;;1.63;;
42200;SDS011;27869;51.442;7.540;2023-05-07T07:01:39;5.45;;;1.70;;
42200;SDS011;27869;51.442;7.540;2023-05-07T07:04:06;6.18;;;1.70;;
42200;SDS011;27869;51.442;7.540;2023-05-07T07:06:34;6.05;;;1.63;;
42200;SDS011;27869;51.442;7.540;2023-05-07T07:09:01;4.97;;;1.60;;
42200;SDS011;27869;51.442;7.540;2023-05-07T07:11:28;5.25;;;1.58;;
42200;SDS011;27869;51.442;7.540;2023-05-07T07:13:55;5.28;;;1.60;;
42200;SDS011;27869;51.442;7.540;2023-05-07T07:16:22;5.00;;;1.52;;
42200;SDS011;27869;51.442;7.540;2023-05-07T07:18:49;6.70;;;1.58;;
42200;SDS011;27869;51.442;7.540;2023-05-07T07:21:16;7.25;;;1.80;;
42200;SDS011;27869;51.442;7.540;2023-05-07T07:23:44;6.03;;;1.40;;
42200;SDS011;27869;51.442;7.540;2023-05-07T07:26:12;5.57;;;1.67;;
42200;SDS011;27869;51.442;7.540;2023-05-07T07:28:42;6.28;;;1.90;;
42200;SDS011;27869;51.442;7.540;2023-05-07T07:31:09;5.35;;;1.67;;
42200;SDS011;27869;51.442;7.540;2023-05-07T07:33:36;8.02;;;1.80;;
42200;SDS011;27869;51.442;7.540;2023-05-07T07:36:04;6.95;;;1.88;;
42200;SDS011;27869;51.442;7.540;2023-05-07T07:38:32;6.30;;;1.90;;
42200;SDS011;27869;51.442;7.540;2023-05-07T07:41:00;5.60;;;1.70;;
42200;SDS011;27869;51.442;7.540;2023-05-07T07:43:27;7.55;;;1.90;;
42200;SDS011;27869;51.442;7.540;2023-05-07T07:45:54;8.18;;;1.92;;
42200;SDS011;27869;51.442;7.540;2023-05-07T07:48:21;5.93;;;1.70;;
42200;SDS011;27869;51.442;7.540;2023-05-07T07:50:48;7.22;;;1.60;;
42200;SDS011;27869;51.442;7.540;2023-05-07T07:53:16;7.68;;;1.77;;
42200;SDS011;27869;51.442;7.540;2023-05-07T07:55:43;5.53;;;1.70;;
42200;SDS011;27869;51.442;7.540;2023-05-07T07:58:12;6.78;;;2.00;;
42200;SDS011;27869;51.442;7.540;2023-05-07T08:00:38;4.43;;;1.48;;
42200;SDS011;27869;51.442;7.540;2023-05-07T08:03:05;7.30;;;1.60;;
42200;SDS011;27869;51.442;7.540;2023-05-07T08:05:35;6.00;;;1.67;;
42200;SDS011;27869;51.442;7.540;2023-05-07T08:08:03;6.47;;;1.73;;
42200;SDS011;27869;51.442;7.540;2023-05-07T08:10:31;4.82;;;1.55;;
42200;SDS011;27869;51.442;7.540;2023-05-07T08:12:59;7.72;;;1.70;;
42200;SDS011;27869;51.442;7.540;2023-05-07T08:15:28;6.20;;;1.60;;
42200;SDS011;27869;51.442;7.540;2023-05-07T08:17:54;6.57;;;1.80;;
42200;SDS011;27869;51.442;7.540;2023-05-07T08:20:22;4.13;;;1.50;;
42200;SDS011;27869;51.442;7.540;2023-05-07T08:22:49;5.63;;;1.77;;
42200;SDS011;27869;51.442;7.540;2023-05-07T08:25:17;5.68;;;1.60;;
42200;SDS011;27869;51.442;7.540;2023-05-07T08:27:44;6.60;;;2.08;;
42200;SDS011;27869;51.442;7.540;2023-05-07T08:30:11;6.47;;;1.80;;
42200;SDS011;27869;51.442;7.540;2023-05-07T08:32:40;8.60;;;1.70;;
42200;SDS011;27869;51.442;7.540;2023-05-07T08:35:08;4.65;;;1.40;;
42200;SDS011;27869;51.442;7.540;2023-05-07T08:37:35;5.80;;;1.98;;
42200;SDS011;27869;51.442;7.540;2023-05-07T08:40:02;9.25;;;2.10;;
42200;SDS011;27869;51.442;7.540;2023-05-07T08:42:30;7.75;;;1.80;;
42200;SDS011;27869;51.442;7.540;2023-05-07T08:45:01;5.95;;;1.60;;
42200;SDS011;27869;51.442;7.540;2023-05-07T08:47:33;5.93;;;1.73;;
42200;SDS011;27869;51.442;7.540;2023-05-07T08:50:07;7.68;;;1.88;;
42200;SDS011;27869;51.442;7.540;2023-05-07T08:52:35;8.15;;;1.90;;
42200;SDS011;27869;51.442;7.540;2023-05-07T08:55:02;7.68;;;1.98;;
42200;SDS011;27869;51.442;7.540;2023-05-07T08:57:30;6.55;;;1.60;;
42200;SDS011;27869;51.442;7.540;2023-05-07T08:59:56;7.25;;;1.88;;
42200;SDS011;27869;51.442;7.540;2023-05-07T09:02:23;7.50;;;1.80;;
42200;SDS011;27869;51.442;7.540;2023-05-07T09:04:50;6.70;;;1.80;;
42200;SDS011;27869;51.442;7.540;2023-05-07T09:07:19;8.73;;;1.80;;
42200;SDS011;27869;51.442;7.540;2023-05-07T09:09:47;7.22;;;1.73;;
42200;SDS011;27869;51.442;7.540;2023-05-07T09:12:14;8.75;;;1.77;;
42200;SDS011;27869;51.442;7.540;2023-05-07T09:14:41;7.15;;;1.80;;
42200;SDS011;27869;51.442;7.540;2023-05-07T09:17:08;6.70;;;1.67;;
42200;SDS011;27869;51.442;7.540;2023-05-07T09:19:35;6.63;;;1.50;;
42200;SDS011;27869;51.442;7.540;2023-05-07T09:22:02;8.50;;;1.58;;
42200;SDS011;27869;51.442;7.540;2023-05-07T09:24:31;6.15;;;1.58;;
42200;SDS011;27869;51.442;7.540;2023-05-07T09:27:01;8.18;;;1.98;;
42200;SDS011;27869;51.442;7.540;2023-05-07T09:29:29;7.25;;;1.77;;
42200;SDS011;27869;51.442;7.540;2023-05-07T09:32:00;4.18;;;1.50;;
42200;SDS011;27869;51.442;7.540;2023-05-07T09:34:28;8.95;;;1.88;;
42200;SDS011;27869;51.442;7.540;2023-05-07T09:36:58;6.47;;;1.58;;
42200;SDS011;27869;51.442;7.540;2023-05-07T09:39:26;8.38;;;1.60;;
42200;SDS011;27869;51.442;7.540;2023-05-07T09:42:06;8.23;;;2.13;;
42200;SDS011;27869;51.442;7.540;2023-05-07T09:44:33;7.45;;;2.45;;
42200;SDS011;27869;51.442;7.540;2023-05-07T09:47:01;6.72;;;1.50;;
42200;SDS011;27869;51.442;7.540;2023-05-07T09:49:30;6.13;;;1.50;;
42200;SDS011;27869;51.442;7.540;2023-05-07T09:52:01;6.75;;;2.10;;
42200;SDS011;27869;51.442;7.540;2023-05-07T09:54:31;7.60;;;2.28;;
42200;SDS011;27869;51.442;7.540;2023-05-07T09:57:00;9.57;;;2.67;;
42200;SDS011;27869;51.442;7.540;2023-05-07T09:59:28;9.10;;;2.97;;
42200;SDS011;27869;51.442;7.540;2023-05-07T10:01:57;11.13;;;3.30;;
42200;SDS011;27869;51.442;7.540;2023-05-07T10:04:25;13.88;;;4.35;;
42200;SDS011;27869;51.442;7.540;2023-05-07T10:06:53;12.65;;;4.53;;
42200;SDS011;27869;51.442;7.540;2023-05-07T10:09:21;12.52;;;4.30;;
42200;SDS011;27869;51.442;7.540;2023-05-07T10:11:49;11.60;;;4.43;;
42200;SDS011;27869;51.442;7.540;2023-05-07T10:14:17;10.77;;;3.75;;
42200;SDS011;27869;51.442;7.540;2023-05-07T10:16:47;11.90;;;4.03;;
42200;SDS011;27869;51.442;7.540;2023-05-07T10:19:15;10.95;;;3.92;;
42200;SDS011;27869;51.442;7.540;2023-05-07T10:21:44;11.13;;;3.67;;
42200;SDS011;27869;51.442;7.540;2023-05-07T10:24:16;10.82;;;3.50;;
42200;SDS011;27869;51.442;7.540;2023-05-07T10:26:48;9.50;;;3.08;;
42200;SDS011;27869;51.442;7.540;2023-05-07T10:29:33;10.45;;;3.30;;
42200;SDS011;27869;51.442;7.540;2023-05-07T10:32:13;9.63;;;3.40;;
42200;SDS011;27869;51.442;7.540;2023-05-07T10:35:02;12.15;;;4.60;;
42200;SDS011;27869;51.442;7.540;2023-05-07T10:37:30;11.50;;;3.92;;
42200;SDS011;27869;51.442;7.540;2023-05-07T10:39:58;10.43;;;3.38;;
42200;SDS011;27869;51.442;7.540;2023-05-07T10:42:25;9.20;;;2.55;;
42200;SDS011;27869;51.442;7.540;2023-05-07T10:44:53;8.90;;;2.70;;
42200;SDS011;27869;51.442;7.540;2023-05-07T10:47:21;10.32;;;3.33;;
42200;SDS011;27869;51.442;7.540;2023-05-07T10:55:50;9.82;;;2.75;;
42200;SDS011;27869;51.442;7.540;2023-05-07T10:58:25;11.10;;;4.40;;
42200;SDS011;27869;51.442;7.540;2023-05-07T11:00:57;11.65;;;3.53;;
42200;SDS011;27869;51.442;7.540;2023-05-07T11:03:24;11.85;;;4.10;;
42200;SDS011;27869;51.442;7.540;2023-05-07T11:06:08;11.73;;;3.20;;
42200;SDS011;27869;51.442;7.540;2023-05-07T11:08:55;10.18;;;3.63;;
42200;SDS011;27869;51.442;7.540;2023-05-07T11:17:12;9.43;;;2.50;;
42200;SDS011;27869;51.442;7.540;2023-05-07T11:19:48;7.78;;;2.13;;
42200;SDS011;27869;51.442;7.540;2023-05-07T11:22:35;7.50;;;2.20;;
42200;SDS011;27869;51.442;7.540;2023-05-07T11:25:05;7.53;;;2.40;;
42200;SDS011;27869;51.442;7.540;2023-05-07T11:27:32;9.93;;;3.17;;
42200;SDS011;27869;51.442;7.540;2023-05-07T11:30:00;10.27;;;3.10;;
42200;SDS011;27869;51.442;7.540;2023-05-07T11:32:29;11.05;;;3.58;;
42200;SDS011;27869;51.442;7.540;2023-05-07T11:34:59;11.50;;;4.10;;
42200;SDS011;27869;51.442;7.540;2023-05-07T11:37:27;13.55;;;4.53;;
42200;SDS011;27869;51.442;7.540;2023-05-07T11:40:02;12.43;;;4.93;;
42200;SDS011;27869;51.442;7.540;2023-05-07T11:42:31;12.65;;;4.32;;
42200;SDS011;27869;51.442;7.540;2023-05-07T11:44:59;12.07;;;4.47;;
42200;SDS011;27869;51.442;7.540;2023-05-07T11:47:26;12.68;;;4.85;;
42200;SDS011;27869;51.442;7.540;2023-05-07T11:50:01;11.55;;;4.15;;
42200;SDS011;27869;51.442;7.540;2023-05-07T11:52:30;12.98;;;4.85;;
42200;SDS011;27869;51.442;7.540;2023-05-07T11:54:57;12.20;;;4.55;;
42200;SDS011;27869;51.442;7.540;2023-05-07T11:59:53;12.25;;;3.88;;
42200;SDS011;27869;51.442;7.540;2023-05-07T12:02:20;12.82;;;4.25;;
42200;SDS011;27869;51.442;7.540;2023-05-07T12:04:51;11.15;;;4.25;;
42200;SDS011;27869;51.442;7.540;2023-05-07T12:07:18;12.15;;;3.80;;
42200;SDS011;27869;51.442;7.540;2023-05-07T12:09:45;12.38;;;4.82;;
42200;SDS011;27869;51.442;7.540;2023-05-07T12:12:12;10.55;;;3.78;;
42200;SDS011;27869;51.442;7.540;2023-05-07T12:14:40;13.23;;;4.78;;
42200;SDS011;27869;51.442;7.540;2023-05-07T12:17:08;14.30;;;5.00;;
42200;SDS011;27869;51.442;7.540;2023-05-07T12:19:36;12.45;;;4.72;;
42200;SDS011;27869;51.442;7.540;2023-05-07T12:22:05;14.32;;;5.28;;
42200;SDS011;27869;51.442;7.540;2023-05-07T12:24:42;12.55;;;4.85;;
42200;SDS011;27869;51.442;7.540;2023-05-07T12:27:10;12.20;;;4.40;;
42200;SDS011;27869;51.442;7.540;2023-05-07T12:29:37;12.10;;;4.10;;
42200;SDS011;27869;51.442;7.540;2023-05-07T12:34:32;16.50;;;5.22;;
42200;SDS011;27869;51.442;7.540;2023-05-07T12:37:01;12.57;;;4.32;;
42200;SDS011;27869;51.442;7.540;2023-05-07T12:39:30;13.50;;;5.03;;
42200;SDS011;27869;51.442;7.540;2023-05-07T12:41:58;14.73;;;4.90;;
42200;SDS011;27869;51.442;7.540;2023-05-07T12:44:28;12.60;;;5.43;;
42200;SDS011;27869;51.442;7.540;2023-05-07T12:46:56;13.48;;;5.68;;
42200;SDS011;27869;51.442;7.540;2023-05-07T12:49:23;12.65;;;4.88;;
42200;SDS011;27869;51.442;7.540;2023-05-07T12:51:50;14.88;;;5.65;;
42200;SDS011;27869;51.442;7.540;2023-05-07T12:54:27;13.43;;;5.40;;
42200;SDS011;27869;51.442;7.540;2023-05-07T12:57:01;13.88;;;5.43;;
42200;SDS011;27869;51.442;7.540;2023-05-07T12:59:32;11.90;;;5.05;;
42200;SDS011;27869;51.442;7.540;2023-05-07T13:02:00;12.85;;;5.32;;
42200;SDS011;27869;51.442;7.540;2023-05-07T13:04:27;12.93;;;5.15;;
42200;SDS011;27869;51.442;7.540;2023-05-07T13:06:54;14.10;;;5.28;;
42200;SDS011;27869;51.442;7.540;2023-05-07T13:09:21;12.45;;;5.22;;
42200;SDS011;27869;51.442;7.540;2023-05-07T13:11:48;13.40;;;5.35;;
42200;SDS011;27869;51.442;7.540;2023-05-07T13:14:17;14.20;;;6.03;;
42200;SDS011;27869;51.442;7.540;2023-05-07T13:16:45;12.07;;;4.47;;
42200;SDS011;27869;51.442;7.540;2023-05-07T13:19:12;15.57;;;5.70;;
42200;SDS011;27869;51.442;7.540;2023-05-07T13:21:39;11.38;;;4.55;;
42200;SDS011;27869;51.442;7.540;2023-05-07T13:24:07;14.13;;;4.88;;
42200;SDS011;27869;51.442;7.540;2023-05-07T13:26:34;12.13;;;5.13;;
42200;SDS011;27869;51.442;7.540;2023-05-07T13:29:01;13.50;;;5.30;;
42200;SDS011;27869;51.442;7.540;2023-05-07T13:31:29;13.20;;;5.18;;
42200;SDS011;27869;51.442;7.540;2023-05-07T13:33:56;12.38;;;4.93;;
42200;SDS011;27869;51.442;7.540;2023-05-07T13:36:23;13.05;;;5.07;;
42200;SDS011;27869;51.442;7.540;2023-05-07T13:38:50;13.13;;;5.25;;
42200;SDS011;27869;51.442;7.540;2023-05-07T13:41:17;13.38;;;4.95;;
42200;SDS011;27869;51.442;7.540;2023-05-07T13:43:45;13.57;;;5.10;;
42200;SDS011;27869;51.442;7.540;2023-05-07T13:46:12;13.43;;;5.50;;
42200;SDS011;27869;51.442;7.540;2023-05-07T13:48:40;14.75;;;4.85;;
42200;SDS011;27869;51.442;7.540;2023-05-07T13:51:07;11.98;;;5.20;;
42200;SDS011;27869;51.442;7.540;2023-05-07T13:53:34;12.93;;;4.30;;
42200;SDS011;27869;51.442;7.540;2023-05-07T13:56:03;11.73;;;4.57;;
42200;SDS011;27869;51.442;7.540;2023-05-07T13:58:31;13.73;;;4.55;;
42200;SDS011;27869;51.442;7.540;2023-05-07T14:00:58;11.63;;;4.43;;
42200;SDS011;27869;51.442;7.540;2023-05-07T14:03:25;11.68;;;4.03;;
42200;SDS011;27869;51.442;7.540;2023-05-07T14:05:53;10.98;;;3.80;;
42200;SDS011;27869;51.442;7.540;2023-05-07T14:08:23;11.15;;;3.63;;
42200;SDS011;27869;51.442;7.540;2023-05-07T14:10:51;9.48;;;3.45;;
42200;SDS011;27869;51.442;7.540;2023-05-07T14:13:20;11.18;;;3.80;;
42200;SDS011;27869;51.442;7.540;2023-05-07T14:15:49;10.85;;;3.47;;
42200;SDS011;27869;51.442;7.540;2023-05-07T14:18:16;10.65;;;3.63;;
42200;SDS011;27869;51.442;7.540;2023-05-07T14:20:43;10.57;;;3.15;;
42200;SDS011;27869;51.442;7.540;2023-05-07T14:23:12;14.13;;;3.78;;
42200;SDS011;27869;51.442;7.540;2023-05-07T14:25:39;10.75;;;3.35;;
42200;SDS011;27869;51.442;7.540;2023-05-07T14:28:08;10.55;;;3.55;;
42200;SDS011;27869;51.442;7.540;2023-05-07T14:30:35;9.98;;;3.40;;
42200;SDS011;27869;51.442;7.540;2023-05-07T14:33:02;11.20;;;3.17;;
42200;SDS011;27869;51.442;7.540;2023-05-07T14:35:29;9.93;;;3.05;;
42200;SDS011;27869;51.442;7.540;2023-05-07T14:37:56;10.10;;;2.78;;
42200;SDS011;27869;51.442;7.540;2023-05-07T14:40:24;9.52;;;2.55;;
42200;SDS011;27869;51.442;7.540;2023-05-07T14:42:51;9.77;;;2.58;;
42200;SDS011;27869;51.442;7.540;2023-05-07T14:45:18;9.32;;;2.33;;
42200;SDS011;27869;51.442;7.540;2023-05-07T14:47:46;7.63;;;2.40;;
42200;SDS011;27869;51.442;7.540;2023-05-07T14:50:13;8.25;;;2.40;;
42200;SDS011;27869;51.442;7.540;2023-05-07T14:52:40;8.23;;;2.47;;
42200;SDS011;27869;51.442;7.540;2023-05-07T14:55:07;9.60;;;2.47;;
42200;SDS011;27869;51.442;7.540;2023-05-07T14:57:36;7.90;;;2.35;;
42200;SDS011;27869;51.442;7.540;2023-05-07T15:00:04;8.45;;;2.45;;
42200;SDS011;27869;51.442;7.540;2023-05-07T15:02:32;9.27;;;2.53;;